sensor_id;sensor_type;location;lat;lon;timestamp;P1;durP1;ratioP1;P2;durP2;ratioP2
86441;SDS011;77105;48.940;12.050;2024-03-25T00:00:50;3.50;;;1.98;;
86441;SDS011;77105;48.940;12.050;2024-03-25T00:04:51;5.25;;;2.45;;
86441;SDS011;77105;48.940;12.050;2024-03-25T00:08:53;1.80;;;1.55;;
86441;SDS011;77105;48.940;12.050;2024-03-25T00:12:55;4.63;;;2.22;;
86441;SDS011;77105;48.940;12.050;2024-03-25T00:16:59;3.85;;;2.13;;
86441;SDS011;77105;48.940;12.050;2024-03-25T00:21:01;3.33;;;2.00;;
86441;SDS011;77105;48.940;12.050;2024-03-25T00:25:03;4.05;;;1.90;;
86441;SDS011;77105;48.940;12.050;2024-03-25T00:29:04;4.00;;;1.65;;
86441;SDS011;77105;48.940;12.050;2024-03-25T00:33:08;3.03;;;1.88;;
86441;SDS011;77105;48.940;12.050;2024-03-25T00:37:10;2.60;;;1.80;;
86441;SDS011;77105;48.940;12.050;2024-03-25T00:41:12;2.92;;;1.95;;
86441;SDS011;77105;48.940;12.050;2024-03-25T00:45:14;2.70;;;2.22;;
86441;SDS011;77105;48.940;12.050;2024-03-25T00:49:16;2.05;;;1.70;;
86441;SDS011;77105;48.940;12.050;2024-03-25T00:53:18;2.95;;;1.70;;
86441;SDS011;77105;48.940;12.050;2024-03-25T00:57:20;3.80;;;1.90;;
86441;SDS011;77105;48.940;12.050;2024-03-25T01:01:22;3.33;;;1.85;;
86441;SDS011;77105;48.940;12.050;2024-03-25T01:05:25;4.47;;;1.73;;
86441;SDS011;77105;48.940;12.050;2024-03-25T01:09:28;2.58;;;1.52;;
86441;SDS011;77105;48.940;12.050;2024-03-25T01:13:30;3.20;;;1.60;;
86441;SDS011;77105;48.940;12.050;2024-03-25T01:17:32;2.65;;;1.73;;
86441;SDS011;77105;48.940;12.050;2024-03-25T01:21:35;2.05;;;1.50;;
86441;SDS011;77105;48.940;12.050;2024-03-25T01:25:37;3.20;;;1.75;;
86441;SDS011;77105;48.940;12.050;2024-03-25T01:29:38;4.18;;;2.00;;
86441;SDS011;77105;48.940;12.050;2024-03-25T01:33:40;2.03;;;1.77;;
86441;SDS011;77105;48.940;12.050;2024-03-25T01:37:43;4.90;;;2.15;;
86441;SDS011;77105;48.940;12.050;2024-03-25T01:41:45;2.60;;;2.20;;
86441;SDS011;77105;48.940;12.050;2024-03-25T01:45:47;3.78;;;2.20;;
86441;SDS011;77105;48.940;12.050;2024-03-25T01:49:49;1.85;;;1.52;;
86441;SDS011;77105;48.940;12.050;2024-03-25T01:53:55;3.40;;;1.85;;
86441;SDS011;77105;48.940;12.050;2024-03-25T01:57:58;2.90;;;1.90;;
86441;SDS011;77105;48.940;12.050;2024-03-25T02:02:00;2.97;;;1.90;;
86441;SDS011;77105;48.940;12.050;2024-03-25T02:06:03;3.20;;;2.10;;
86441;SDS011;77105;48.940;12.050;2024-03-25T02:10:12;4.43;;;1.77;;
86441;SDS011;77105;48.940;12.050;2024-03-25T02:14:15;4.25;;;2.20;;
86441;SDS011;77105;48.940;12.050;2024-03-25T02:18:17;5.05;;;2.03;;
86441;SDS011;77105;48.940;12.050;2024-03-25T02:22:18;2.78;;;2.17;;
86441;SDS011;77105;48.940;12.050;2024-03-25T02:26:22;3.42;;;2.20;;
86441;SDS011;77105;48.940;12.050;2024-03-25T02:30:24;4.18;;;2.40;;
86441;SDS011;77105;48.940;12.050;2024-03-25T02:34:26;5.65;;;2.33;;
86441;SDS011;77105;48.940;12.050;2024-03-25T02:38:27;1.80;;;1.63;;
86441;SDS011;77105;48.940;12.050;2024-03-25T02:42:31;4.13;;;2.10;;
86441;SDS011;77105;48.940;12.050;2024-03-25T02:46:33;4.68;;;2.40;;
86441;SDS011;77105;48.940;12.050;2024-03-25T02:50:35;4.65;;;2.40;;
86441;SDS011;77105;48.940;12.050;2024-03-25T02:54:37;3.92;;;2.05;;
86441;SDS011;77105;48.940;12.050;2024-03-25T02:58:39;3.08;;;2.22;;
86441;SDS011;77105;48.940;12.050;2024-03-25T03:02:41;2.28;;;2.08;;
86441;SDS011;77105;48.940;12.050;2024-03-25T03:06:43;4.38;;;2.00;;
86441;SDS011;77105;48.940;12.050;2024-03-25T03:10:45;2.42;;;1.83;;
86441;SDS011;77105;48.940;12.050;2024-03-25T03:14:48;2.80;;;2.08;;
86441;SDS011;77105;48.940;12.050;2024-03-25T03:18:49;3.92;;;1.88;;
86441;SDS011;77105;48.940;12.050;2024-03-25T03:22:52;3.65;;;2.20;;
86441;SDS011;77105;48.940;12.050;2024-03-25T03:26:54;2.47;;;1.90;;
86441;SDS011;77105;48.940;12.050;2024-03-25T03:30:57;2.60;;;1.92;;
86441;SDS011;77105;48.940;12.050;2024-03-25T03:34:59;2.53;;;2.00;;
86441;SDS011;77105;48.940;12.050;2024-03-25T03:39:00;4.00;;;2.15;;
86441;SDS011;77105;48.940;12.050;2024-03-25T03:43:03;5.38;;;2.25;;
86441;SDS011;77105;48.940;12.050;2024-03-25T03:47:06;2.58;;;2.10;;
86441;SDS011;77105;48.940;12.050;2024-03-25T03:51:08;3.10;;;2.17;;
86441;SDS011;77105;48.940;12.050;2024-03-25T03:55:10;3.28;;;2.08;;
86441;SDS011;77105;48.940;12.050;2024-03-25T03:59:12;4.38;;;2.25;;
86441;SDS011;77105;48.940;12.050;2024-03-25T04:03:15;2.90;;;1.77;;
86441;SDS011;77105;48.940;12.050;2024-03-25T04:07:17;3.00;;;2.08;;
86441;SDS011;77105;48.940;12.050;2024-03-25T04:11:19;7.20;;;2.72;;
86441;SDS011;77105;48.940;12.050;2024-03-25T04:15:21;3.85;;;2.20;;
86441;SDS011;77105;48.940;12.050;2024-03-25T04:19:24;4.40;;;2.10;;
86441;SDS011;77105;48.940;12.050;2024-03-25T04:23:27;2.83;;;1.90;;
86441;SDS011;77105;48.940;12.050;2024-03-25T04:27:29;3.88;;;1.55;;
86441;SDS011;77105;48.940;12.050;2024-03-25T04:31:31;3.65;;;2.22;;
86441;SDS011;77105;48.940;12.050;2024-03-25T04:35:34;7.47;;;2.30;;
86441;SDS011;77105;48.940;12.050;2024-03-25T04:39:36;3.95;;;2.13;;
86441;SDS011;77105;48.940;12.050;2024-03-25T04:43:37;4.53;;;2.17;;
86441;SDS011;77105;48.940;12.050;2024-03-25T04:47:38;3.00;;;2.17;;
86441;SDS011;77105;48.940;12.050;2024-03-25T04:51:40;4.45;;;2.58;;
86441;SDS011;77105;48.940;12.050;2024-03-25T04:55:41;4.00;;;2.35;;
86441;SDS011;77105;48.940;12.050;2024-03-25T04:59:42;3.95;;;2.40;;
86441;SDS011;77105;48.940;12.050;2024-03-25T05:03:43;4.43;;;2.25;;
86441;SDS011;77105;48.940;12.050;2024-03-25T05:07:46;4.78;;;2.17;;
86441;SDS011;77105;48.940;12.050;2024-03-25T05:11:46;4.93;;;2.30;;
86441;SDS011;77105;48.940;12.050;2024-03-25T05:15:50;2.53;;;2.05;;
86441;SDS011;77105;48.940;12.050;2024-03-25T05:19:52;4.20;;;2.17;;
86441;SDS011;77105;48.940;12.050;2024-03-25T05:23:54;3.15;;;2.35;;
86441;SDS011;77105;48.940;12.050;2024-03-25T05:27:55;3.65;;;2.53;;
86441;SDS011;77105;48.940;12.050;2024-03-25T05:31:56;4.40;;;2.60;;
86441;SDS011;77105;48.940;12.050;2024-03-25T05:35:58;3.15;;;2.20;;
86441;SDS011;77105;48.940;12.050;2024-03-25T05:40:00;5.80;;;2.72;;
86441;SDS011;77105;48.940;12.050;2024-03-25T05:44:01;3.38;;;2.58;;
86441;SDS011;77105;48.940;12.050;2024-03-25T05:48:02;5.03;;;2.30;;
86441;SDS011;77105;48.940;12.050;2024-03-25T05:52:04;4.72;;;2.00;;
86441;SDS011;77105;48.940;12.050;2024-03-25T05:56:07;3.72;;;2.55;;
86441;SDS011;77105;48.940;12.050;2024-03-25T06:00:08;4.75;;;2.50;;
86441;SDS011;77105;48.940;12.050;2024-03-25T06:04:11;4.50;;;2.50;;
86441;SDS011;77105;48.940;12.050;2024-03-25T06:08:12;6.63;;;2.63;;
86441;SDS011;77105;48.940;12.050;2024-03-25T06:12:17;6.10;;;3.10;;
86441;SDS011;77105;48.940;12.050;2024-03-25T06:16:18;3.88;;;2.40;;
86441;SDS011;77105;48.940;12.050;2024-03-25T06:20:19;4.47;;;2.70;;
86441;SDS011;77105;48.940;12.050;2024-03-25T06:24:20;5.07;;;2.65;;
86441;SDS011;77105;48.940;12.050;2024-03-25T06:28:22;5.82;;;2.42;;
86441;SDS011;77105;48.940;12.050;2024-03-25T06:32:23;3.35;;;2.25;;
86441;SDS011;77105;48.940;12.050;2024-03-25T06:40:44;6.00;;;2.80;;
86441;SDS011;77105;48.940;12.050;2024-03-25T06:44:47;7.47;;;2.97;;
86441;SDS011;77105;48.940;12.050;2024-03-25T06:48:48;6.15;;;2.75;;
86441;SDS011;77105;48.940;12.050;2024-03-25T06:52:49;4.07;;;2.47;;
86441;SDS011;77105;48.940;12.050;2024-03-25T06:56:50;5.10;;;2.88;;
86441;SDS011;77105;48.940;12.050;2024-03-25T07:00:53;3.22;;;2.20;;
86441;SDS011;77105;48.940;12.050;2024-03-25T07:04:54;4.63;;;2.83;;
86441;SDS011;77105;48.940;12.050;2024-03-25T07:08:55;5.25;;;3.00;;
86441;SDS011;77105;48.940;12.050;2024-03-25T07:12:56;6.10;;;3.15;;
86441;SDS011;77105;48.940;12.050;2024-03-25T07:16:58;3.85;;;2.72;;
86441;SDS011;77105;48.940;12.050;2024-03-25T07:20:59;2.75;;;2.20;;
86441;SDS011;77105;48.940;12.050;2024-03-25T07:25:00;4.15;;;2.50;;
86441;SDS011;77105;48.940;12.050;2024-03-25T07:29:01;4.93;;;2.38;;
86441;SDS011;77105;48.940;12.050;2024-03-25T07:33:03;4.95;;;2.53;;
86441;SDS011;77105;48.940;12.050;2024-03-25T07:37:05;4.53;;;2.15;;
86441;SDS011;77105;48.940;12.050;2024-03-25T07:41:06;3.30;;;2.45;;
86441;SDS011;77105;48.940;12.050;2024-03-25T07:45:07;4.20;;;2.40;;
86441;SDS011;77105;48.940;12.050;2024-03-25T07:49:09;3.15;;;2.33;;
86441;SDS011;77105;48.940;12.050;2024-03-25T07:53:10;3.33;;;2.83;;
86441;SDS011;77105;48.940;12.050;2024-03-25T07:57:12;3.97;;;2.08;;
86441;SDS011;77105;48.940;12.050;2024-03-25T08:01:12;4.65;;;2.25;;
86441;SDS011;77105;48.940;12.050;2024-03-25T08:05:15;4.78;;;1.95;;
86441;SDS011;77105;48.940;12.050;2024-03-25T08:09:16;3.90;;;2.70;;
86441;SDS011;77105;48.940;12.050;2024-03-25T08:13:16;4.72;;;2.00;;
86441;SDS011;77105;48.940;12.050;2024-03-25T08:17:17;3.20;;;2.13;;
86441;SDS011;77105;48.940;12.050;2024-03-25T08:21:20;3.70;;;2.22;;
86441;SDS011;77105;48.940;12.050;2024-03-25T08:25:20;4.25;;;2.10;;
86441;SDS011;77105;48.940;12.050;2024-03-25T08:29:21;2.80;;;2.00;;
86441;SDS011;77105;48.940;12.050;2024-03-25T08:33:22;2.30;;;1.95;;
86441;SDS011;77105;48.940;12.050;2024-03-25T08:37:25;3.85;;;1.75;;
86441;SDS011;77105;48.940;12.050;2024-03-25T08:41:26;3.10;;;2.17;;
86441;SDS011;77105;48.940;12.050;2024-03-25T08:45:26;3.53;;;2.13;;
86441;SDS011;77105;48.940;12.050;2024-03-25T08:49:27;3.38;;;1.63;;
86441;SDS011;77105;48.940;12.050;2024-03-25T08:53:30;2.53;;;2.25;;
86441;SDS011;77105;48.940;12.050;2024-03-25T08:57:31;6.03;;;1.90;;
86441;SDS011;77105;48.940;12.050;2024-03-25T09:01:31;2.95;;;1.75;;
86441;SDS011;77105;48.940;12.050;2024-03-25T09:05:33;3.78;;;2.20;;
86441;SDS011;77105;48.940;12.050;2024-03-25T09:09:35;4.03;;;1.85;;
86441;SDS011;77105;48.940;12.050;2024-03-25T09:13:55;3.10;;;1.52;;
86441;SDS011;77105;48.940;12.050;2024-03-25T09:17:55;2.30;;;1.60;;
86441;SDS011;77105;48.940;12.050;2024-03-25T09:21:56;3.83;;;1.67;;
86441;SDS011;77105;48.940;12.050;2024-03-25T09:25:58;5.35;;;2.05;;
86441;SDS011;77105;48.940;12.050;2024-03-25T09:29:59;3.88;;;1.88;;
86441;SDS011;77105;48.940;12.050;2024-03-25T09:34:00;2.40;;;2.20;;
86441;SDS011;77105;48.940;12.050;2024-03-25T09:38:01;2.47;;;1.77;;
86441;SDS011;77105;48.940;12.050;2024-03-25T09:42:04;3.22;;;1.80;;
86441;SDS011;77105;48.940;12.050;2024-03-25T09:46:08;2.10;;;1.77;;
86441;SDS011;77105;48.940;12.050;2024-03-25T09:50:10;2.28;;;1.50;;
86441;SDS011;77105;48.940;12.050;2024-03-25T09:54:12;2.85;;;1.95;;
86441;SDS011;77105;48.940;12.050;2024-03-25T09:58:15;2.25;;;1.90;;
86441;SDS011;77105;48.940;12.050;2024-03-25T10:02:18;2.85;;;1.77;;
86441;SDS011;77105;48.940;12.050;2024-03-25T10:06:19;3.05;;;2.22;;
86441;SDS011;77105;48.940;12.050;2024-03-25T10:10:20;2.95;;;1.85;;
86441;SDS011;77105;48.940;12.050;2024-03-25T10:14:22;4.13;;;1.90;;
86441;SDS011;77105;48.940;12.050;2024-03-25T10:18:23;2.83;;;1.73;;
86441;SDS011;77105;48.940;12.050;2024-03-25T10:22:24;2.75;;;1.98;;
86441;SDS011;77105;48.940;12.050;2024-03-25T10:26:26;3.75;;;1.88;;
86441;SDS011;77105;48.940;12.050;2024-03-25T10:30:29;1.60;;;1.50;;
86441;SDS011;77105;48.940;12.050;2024-03-25T10:34:30;2.90;;;1.92;;
86441;SDS011;77105;48.940;12.050;2024-03-25T10:38:31;2.20;;;1.75;;
86441;SDS011;77105;48.940;12.050;2024-03-25T10:42:33;3.25;;;2.03;;
86441;SDS011;77105;48.940;12.050;2024-03-25T10:46:37;2.22;;;1.52;;
86441;SDS011;77105;48.940;12.050;2024-03-25T10:50:39;3.17;;;2.25;;
86441;SDS011;77105;48.940;12.050;2024-03-25T10:54:42;5.30;;;1.75;;
86441;SDS011;77105;48.940;12.050;2024-03-25T10:58:45;2.33;;;1.65;;
86441;SDS011;77105;48.940;12.050;2024-03-25T11:02:48;1.98;;;1.35;;
86441;SDS011;77105;48.940;12.050;2024-03-25T11:06:51;2.20;;;1.45;;
86441;SDS011;77105;48.940;12.050;2024-03-25T11:10:52;4.05;;;1.98;;
86441;SDS011;77105;48.940;12.050;2024-03-25T11:14:56;3.05;;;2.35;;
86441;SDS011;77105;48.940;12.050;2024-03-25T11:19:01;3.65;;;1.65;;
86441;SDS011;77105;48.940;12.050;2024-03-25T11:23:07;2.35;;;1.80;;
86441;SDS011;77105;48.940;12.050;2024-03-25T11:27:09;2.97;;;1.70;;
86441;SDS011;77105;48.940;12.050;2024-03-25T11:31:10;3.97;;;1.83;;
86441;SDS011;77105;48.940;12.050;2024-03-25T11:35:13;3.75;;;1.98;;
86441;SDS011;77105;48.940;12.050;2024-03-25T11:39:14;4.40;;;1.70;;
86441;SDS011;77105;48.940;12.050;2024-03-25T11:43:18;3.03;;;1.83;;
86441;SDS011;77105;48.940;12.050;2024-03-25T11:47:19;2.28;;;1.70;;
86441;SDS011;77105;48.940;12.050;2024-03-25T11:51:21;2.03;;;1.55;;
86441;SDS011;77105;48.940;12.050;2024-03-25T11:55:22;2.22;;;1.40;;
86441;SDS011;77105;48.940;12.050;2024-03-25T11:59:24;2.90;;;1.85;;
86441;SDS011;77105;48.940;12.050;2024-03-25T12:03:25;2.30;;;1.65;;
86441;SDS011;77105;48.940;12.050;2024-03-25T12:07:27;2.83;;;1.50;;
86441;SDS011;77105;48.940;12.050;2024-03-25T12:11:28;2.17;;;1.50;;
86441;SDS011;77105;48.940;12.050;2024-03-25T12:15:29;2.58;;;1.63;;
86441;SDS011;77105;48.940;12.050;2024-03-25T12:19:30;1.60;;;1.15;;
86441;SDS011;77105;48.940;12.050;2024-03-25T12:23:32;2.63;;;2.05;;
86441;SDS011;77105;48.940;12.050;2024-03-25T12:27:33;3.00;;;1.60;;
86441;SDS011;77105;48.940;12.050;2024-03-25T12:31:35;1.30;;;1.20;;
86441;SDS011;77105;48.940;12.050;2024-03-25T12:35:35;3.20;;;1.60;;
86441;SDS011;77105;48.940;12.050;2024-03-25T12:39:38;2.42;;;1.63;;
86441;SDS011;77105;48.940;12.050;2024-03-25T12:43:48;2.17;;;1.60;;
86441;SDS011;77105;48.940;12.050;2024-03-25T12:47:51;2.28;;;1.60;;
86441;SDS011;77105;48.940;12.050;2024-03-25T12:51:52;2.13;;;1.60;;
86441;SDS011;77105;48.940;12.050;2024-03-25T12:55:54;2.55;;;2.05;;
86441;SDS011;77105;48.940;12.050;2024-03-25T12:59:55;2.50;;;1.60;;
86441;SDS011;77105;48.940;12.050;2024-03-25T13:03:56;2.58;;;1.80;;
86441;SDS011;77105;48.940;12.050;2024-03-25T13:07:56;1.98;;;1.30;;
86441;SDS011;77105;48.940;12.050;2024-03-25T13:11:59;2.50;;;1.73;;
86441;SDS011;77105;48.940;12.050;2024-03-25T13:16:00;2.03;;;1.30;;
86441;SDS011;77105;48.940;12.050;2024-03-25T13:20:01;2.30;;;1.13;;
86441;SDS011;77105;48.940;12.050;2024-03-25T13:24:02;2.38;;;1.30;;
86441;SDS011;77105;48.940;12.050;2024-03-25T13:28:05;2.28;;;1.17;;
86441;SDS011;77105;48.940;12.050;2024-03-25T13:32:06;2.03;;;1.52;;
86441;SDS011;77105;48.940;12.050;2024-03-25T13:36:07;2.20;;;1.42;;
86441;SDS011;77105;48.940;12.050;2024-03-25T13:40:09;3.20;;;1.90;;
86441;SDS011;77105;48.940;12.050;2024-03-25T13:44:11;1.98;;;1.55;;
86441;SDS011;77105;48.940;12.050;2024-03-25T13:48:12;3.17;;;1.48;;
86441;SDS011;77105;48.940;12.050;2024-03-25T13:52:13;3.28;;;1.73;;
86441;SDS011;77105;48.940;12.050;2024-03-25T13:56:17;3.35;;;2.00;;
86441;SDS011;77105;48.940;12.050;2024-03-25T14:00:19;2.95;;;1.63;;
86441;SDS011;77105;48.940;12.050;2024-03-25T14:04:20;2.60;;;1.67;;
86441;SDS011;77105;48.940;12.050;2024-03-25T14:08:21;2.10;;;1.73;;
86441;SDS011;77105;48.940;12.050;2024-03-25T14:12:22;6.55;;;3.55;;
86441;SDS011;77105;48.940;12.050;2024-03-25T14:16:24;3.78;;;1.83;;
86441;SDS011;77105;48.940;12.050;2024-03-25T14:20:25;2.47;;;1.83;;
86441;SDS011;77105;48.940;12.050;2024-03-25T14:24:26;2.83;;;1.75;;
86441;SDS011;77105;48.940;12.050;2024-03-25T14:28:27;3.40;;;1.92;;
86441;SDS011;77105;48.940;12.050;2024-03-25T14:32:29;2.35;;;2.15;;
86441;SDS011;77105;48.940;12.050;2024-03-25T14:36:30;2.47;;;1.50;;
86441;SDS011;77105;48.940;12.050;2024-03-25T14:40:31;2.55;;;1.50;;
86441;SDS011;77105;48.940;12.050;2024-03-25T14:44:32;2.97;;;2.03;;
86441;SDS011;77105;48.940;12.050;2024-03-25T14:48:34;3.20;;;1.70;;
86441;SDS011;77105;48.940;12.050;2024-03-25T14:52:35;2.92;;;1.52;;
86441;SDS011;77105;48.940;12.050;2024-03-25T14:56:36;2.30;;;1.73;;
86441;SDS011;77105;48.940;12.050;2024-03-25T15:00:37;4.15;;;2.33;;
86441;SDS011;77105;48.940;12.050;2024-03-25T15:04:39;2.83;;;1.65;;
86441;SDS011;77105;48.940;12.050;2024-03-25T15:08:41;2.35;;;1.60;;
86441;SDS011;77105;48.940;12.050;2024-03-25T15:12:42;5.47;;;4.07;;
86441;SDS011;77105;48.940;12.050;2024-03-25T15:16:43;4.30;;;2.45;;
86441;SDS011;77105;48.940;12.050;2024-03-25T15:20:45;3.67;;;2.13;;
86441;SDS011;77105;48.940;12.050;2024-03-25T15:24:46;2.25;;;1.63;;
86441;SDS011;77105;48.940;12.050;2024-03-25T15:28:47;2.17;;;1.50;;
86441;SDS011;77105;48.940;12.050;2024-03-25T15:32:48;1.98;;;1.70;;
86441;SDS011;77105;48.940;12.050;2024-03-25T15:36:50;2.13;;;1.92;;
86441;SDS011;77105;48.940;12.050;2024-03-25T15:40:51;2.45;;;1.73;;
86441;SDS011;77105;48.940;12.050;2024-03-25T15:44:52;2.72;;;1.85;;
86441;SDS011;77105;48.940;12.050;2024-03-25T15:48:53;1.90;;;1.58;;
86441;SDS011;77105;48.940;12.050;2024-03-25T15:52:56;2.60;;;1.85;;
86441;SDS011;77105;48.940;12.050;2024-03-25T15:56:57;3.53;;;1.92;;
86441;SDS011;77105;48.940;12.050;2024-03-25T16:00:58;10.55;;;5.72;;
86441;SDS011;77105;48.940;12.050;2024-03-25T16:04:58;1.85;;;1.67;;
86441;SDS011;77105;48.940;12.050;2024-03-25T16:09:01;2.20;;;1.55;;
86441;SDS011;77105;48.940;12.050;2024-03-25T16:13:02;1.85;;;1.40;;
86441;SDS011;77105;48.940;12.050;2024-03-25T16:17:03;1.83;;;1.25;;
86441;SDS011;77105;48.940;12.050;2024-03-25T16:21:12;1.80;;;1.38;;
86441;SDS011;77105;48.940;12.050;2024-03-25T16:25:15;1.70;;;1.60;;
86441;SDS011;77105;48.940;12.050;2024-03-25T16:29:16;1.50;;;1.33;;
86441;SDS011;77105;48.940;12.050;2024-03-25T16:33:17;2.08;;;1.80;;
86441;SDS011;77105;48.940;12.050;2024-03-25T16:37:18;2.53;;;1.50;;
86441;SDS011;77105;48.940;12.050;2024-03-25T16:41:20;2.75;;;1.90;;
86441;SDS011;77105;48.940;12.050;2024-03-25T16:45:21;2.08;;;1.60;;
86441;SDS011;77105;48.940;12.050;2024-03-25T16:49:23;2.47;;;1.63;;
86441;SDS011;77105;48.940;12.050;2024-03-25T16:53:24;1.92;;;1.40;;
86441;SDS011;77105;48.940;12.050;2024-03-25T16:57:26;2.55;;;1.73;;
86441;SDS011;77105;48.940;12.050;2024-03-25T17:01:28;2.60;;;2.00;;
86441;SDS011;77105;48.940;12.050;2024-03-25T17:05:28;1.95;;;1.73;;
86441;SDS011;77105;48.940;12.050;2024-03-25T17:09:29;4.07;;;1.80;;
86441;SDS011;77105;48.940;12.050;2024-03-25T17:13:32;6.40;;;4.50;;
86441;SDS011;77105;48.940;12.050;2024-03-25T17:17:33;1.60;;;1.40;;
86441;SDS011;77105;48.940;12.050;2024-03-25T17:21:35;2.30;;;1.90;;
86441;SDS011;77105;48.940;12.050;2024-03-25T17:25:36;2.38;;;2.13;;
86441;SDS011;77105;48.940;12.050;2024-03-25T17:29:38;3.10;;;1.80;;
86441;SDS011;77105;48.940;12.050;2024-03-25T17:33:39;4.13;;;2.45;;
86441;SDS011;77105;48.940;12.050;2024-03-25T17:37:41;3.08;;;2.13;;
86441;SDS011;77105;48.940;12.050;2024-03-25T17:41:41;3.08;;;2.22;;
86441;SDS011;77105;48.940;12.050;2024-03-25T17:45:44;3.50;;;2.20;;
86441;SDS011;77105;48.940;12.050;2024-03-25T17:49:45;3.30;;;2.47;;
86441;SDS011;77105;48.940;12.050;2024-03-25T17:53:46;7.40;;;4.35;;
86441;SDS011;77105;48.940;12.050;2024-03-25T17:57:47;4.07;;;2.53;;
86441;SDS011;77105;48.940;12.050;2024-03-25T18:01:49;3.28;;;2.45;;
86441;SDS011;77105;48.940;12.050;2024-03-25T18:05:50;3.95;;;2.78;;
86441;SDS011;77105;48.940;12.050;2024-03-25T18:09:51;3.58;;;2.85;;
86441;SDS011;77105;48.940;12.050;2024-03-25T18:13:52;3.22;;;2.92;;
86441;SDS011;77105;48.940;12.050;2024-03-25T18:17:54;3.55;;;3.25;;
86441;SDS011;77105;48.940;12.050;2024-03-25T18:21:55;3.53;;;3.20;;
86441;SDS011;77105;48.940;12.050;2024-03-25T18:25:56;3.60;;;2.90;;
86441;SDS011;77105;48.940;12.050;2024-03-25T18:29:57;3.97;;;2.92;;
86441;SDS011;77105;48.940;12.050;2024-03-25T18:34:00;3.45;;;2.85;;
86441;SDS011;77105;48.940;12.050;2024-03-25T18:38:01;5.68;;;2.95;;
86441;SDS011;77105;48.940;12.050;2024-03-25T18:42:02;6.18;;;4.55;;
86441;SDS011;77105;48.940;12.050;2024-03-25T18:46:03;5.18;;;3.85;;
86441;SDS011;77105;48.940;12.050;2024-03-25T18:50:06;3.95;;;3.25;;
86441;SDS011;77105;48.940;12.050;2024-03-25T18:54:09;6.85;;;4.63;;
86441;SDS011;77105;48.940;12.050;2024-03-25T18:58:10;7.95;;;4.97;;
86441;SDS011;77105;48.940;12.050;2024-03-25T19:02:11;4.97;;;3.58;;
86441;SDS011;77105;48.940;12.050;2024-03-25T19:06:13;5.25;;;4.05;;
86441;SDS011;77105;48.940;12.050;2024-03-25T19:10:14;4.93;;;3.20;;
86441;SDS011;77105;48.940;12.050;2024-03-25T19:14:14;5.60;;;3.22;;
86441;SDS011;77105;48.940;12.050;2024-03-25T19:18:15;5.53;;;4.05;;
86441;SDS011;77105;48.940;12.050;2024-03-25T19:22:18;3.30;;;2.75;;
86441;SDS011;77105;48.940;12.050;2024-03-25T19:26:19;5.70;;;3.72;;
86441;SDS011;77105;48.940;12.050;2024-03-25T19:30:20;9.35;;;4.82;;
86441;SDS011;77105;48.940;12.050;2024-03-25T19:34:21;13.68;;;6.28;;
86441;SDS011;77105;48.940;12.050;2024-03-25T19:38:23;13.52;;;6.07;;
86441;SDS011;77105;48.940;12.050;2024-03-25T19:42:24;9.63;;;4.65;;
86441;SDS011;77105;48.940;12.050;2024-03-25T19:46:25;5.72;;;3.95;;
86441;SDS011;77105;48.940;12.050;2024-03-25T19:50:26;5.63;;;4.03;;
86441;SDS011;77105;48.940;12.050;2024-03-25T19:54:28;6.75;;;3.10;;
86441;SDS011;77105;48.940;12.050;2024-03-25T19:58:29;4.57;;;3.92;;
86441;SDS011;77105;48.940;12.050;2024-03-25T20:02:30;4.63;;;3.90;;
86441;SDS011;77105;48.940;12.050;2024-03-25T20:06:31;6.30;;;3.47;;
86441;SDS011;77105;48.940;12.050;2024-03-25T20:10:34;5.70;;;3.22;;
86441;SDS011;77105;48.940;12.050;2024-03-25T20:14:34;6.25;;;3.42;;
86441;SDS011;77105;48.940;12.050;2024-03-25T20:18:35;4.40;;;3.42;;
86441;SDS011;77105;48.940;12.050;2024-03-25T20:22:36;3.60;;;3.13;;
86441;SDS011;77105;48.940;12.050;2024-03-25T20:26:38;5.90;;;3.20;;
86441;SDS011;77105;48.940;12.050;2024-03-25T20:30:39;5.47;;;3.55;;
86441;SDS011;77105;48.940;12.050;2024-03-25T20:34:40;4.10;;;2.95;;
86441;SDS011;77105;48.940;12.050;2024-03-25T20:38:41;3.28;;;2.63;;
86441;SDS011;77105;48.940;12.050;2024-03-25T20:42:43;3.72;;;2.53;;
86441;SDS011;77105;48.940;12.050;2024-03-25T20:46:44;5.18;;;3.35;;
86441;SDS011;77105;48.940;12.050;2024-03-25T20:50:45;4.70;;;2.50;;
86441;SDS011;77105;48.940;12.050;2024-03-25T20:54:46;4.10;;;2.50;;
86441;SDS011;77105;48.940;12.050;2024-03-25T20:58:48;3.53;;;2.80;;
86441;SDS011;77105;48.940;12.050;2024-03-25T21:02:50;2.83;;;2.53;;
86441;SDS011;77105;48.940;12.050;2024-03-25T21:06:50;3.10;;;2.72;;
86441;SDS011;77105;48.940;12.050;2024-03-25T21:10:51;3.08;;;2.78;;
86441;SDS011;77105;48.940;12.050;2024-03-25T21:14:54;4.15;;;2.85;;
86441;SDS011;77105;48.940;12.050;2024-03-25T21:18:55;3.10;;;2.45;;
86441;SDS011;77105;48.940;12.050;2024-03-25T21:22:56;4.85;;;2.70;;
86441;SDS011;77105;48.940;12.050;2024-03-25T21:26:57;3.28;;;2.83;;
86441;SDS011;77105;48.940;12.050;2024-03-25T21:30:59;3.58;;;2.85;;
86441;SDS011;77105;48.940;12.050;2024-03-25T21:35:03;3.13;;;2.67;;
86441;SDS011;77105;48.940;12.050;2024-03-25T21:39:04;3.75;;;2.53;;
86441;SDS011;77105;48.940;12.050;2024-03-25T21:43:05;4.38;;;2.90;;
86441;SDS011;77105;48.940;12.050;2024-03-25T21:47:08;5.10;;;3.00;;
86441;SDS011;77105;48.940;12.050;2024-03-25T21:51:09;3.95;;;2.55;;
86441;SDS011;77105;48.940;12.050;2024-03-25T21:55:09;3.50;;;2.83;;
86441;SDS011;77105;48.940;12.050;2024-03-25T21:59:10;2.88;;;2.42;;
86441;SDS011;77105;48.940;12.050;2024-03-25T22:03:13;3.03;;;2.63;;
86441;SDS011;77105;48.940;12.050;2024-03-25T22:07:14;3.85;;;2.70;;
86441;SDS011;77105;48.940;12.050;2024-03-25T22:11:15;3.35;;;2.60;;
86441;SDS011;77105;48.940;12.050;2024-03-25T22:15:16;2.67;;;2.42;;
86441;SDS011;77105;48.940;12.050;2024-03-25T22:19:18;4.13;;;3.17;;
86441;SDS011;77105;48.940;12.050;2024-03-25T22:23:19;4.75;;;2.70;;
86441;SDS011;77105;48.940;12.050;2024-03-25T22:27:20;3.47;;;2.78;;
86441;SDS011;77105;48.940;12.050;2024-03-25T22:31:21;2.92;;;2.38;;
86441;SDS011;77105;48.940;12.050;2024-03-25T22:35:23;4.55;;;2.90;;
86441;SDS011;77105;48.940;12.050;2024-03-25T22:39:24;3.38;;;2.67;;
86441;SDS011;77105;48.940;12.050;2024-03-25T22:43:25;3.15;;;2.85;;
86441;SDS011;77105;48.940;12.050;2024-03-25T22:47:26;4.93;;;2.92;;
86441;SDS011;77105;48.940;12.050;2024-03-25T22:51:29;3.67;;;3.17;;
86441;SDS011;77105;48.940;12.050;2024-03-25T22:55:29;4.13;;;2.92;;
86441;SDS011;77105;48.940;12.050;2024-03-25T22:59:30;4.15;;;3.03;;
86441;SDS011;77105;48.940;12.050;2024-03-25T23:03:31;3.35;;;2.88;;
86441;SDS011;77105;48.940;12.050;2024-03-25T23:07:34;4.60;;;3.08;;
86441;SDS011;77105;48.940;12.050;2024-03-25T23:11:35;5.28;;;3.63;;
86441;SDS011;77105;48.940;12.050;2024-03-25T23:15:36;2.83;;;2.53;;
86441;SDS011;77105;48.940;12.050;2024-03-25T23:19:37;4.30;;;3.00;;
86441;SDS011;77105;48.940;12.050;2024-03-25T23:23:39;4.30;;;3.10;;
86441;SDS011;77105;48.940;12.050;2024-03-25T23:27:40;4.68;;;2.90;;
86441;SDS011;77105;48.940;12.050;2024-03-25T23:31:41;4.57;;;3.33;;
86441;SDS011;77105;48.940;12.050;2024-03-25T23:35:41;3.80;;;2.95;;
86441;SDS011;77105;48.940;12.050;2024-03-25T23:39:44;3.40;;;2.60;;
86441;SDS011;77105;48.940;12.050;2024-03-25T23:43:45;3.63;;;2.80;;
86441;SDS011;77105;48.940;12.050;2024-03-25T23:47:46;3.55;;;2.80;;
86441;SDS011;77105;48.940;12.050;2024-03-25T23:51:47;2.97;;;2.72;;
86441;SDS011;77105;48.940;12.050;2024-03-25T23:55:49;4.43;;;2.80;;